createdAt,value
2017-11-16T01:38:47.105Z,80.33
2017-11-16T01:38:47.678Z,80.33
2017-11-16T01:38:48.279Z,80.23
2017-11-16T01:38:48.879Z,80.33
2017-11-16T01:38:49.478Z,80.33
2017-11-16T01:38:50.079Z,80.33
2017-11-16T01:38:50.679Z,80.23
2017-11-16T01:39:44.141Z,79.66
2017-11-16T01:39:44.715Z,79.85
2017-11-16T01:39:45.314Z,79.75
2017-11-16T01:39:45.914Z,79.57
2017-11-16T01:39:46.527Z,79.38
2017-11-16T01:39:47.115Z,79.66
2017-11-16T01:39:47.713Z,79.94
2017-11-16T01:39:48.313Z,79.57
2017-11-16T01:40:43.347Z,79.66
2017-11-16T01:40:43.905Z,79.57
2017-11-16T01:40:44.505Z,79.57
2017-11-16T01:40:45.104Z,79.66
2017-11-16T01:40:45.704Z,79.57
2017-11-16T01:40:46.306Z,79.57
2017-11-16T01:40:46.904Z,79.57
2017-11-16T01:41:40.472Z,79.57
2017-11-16T01:41:41.044Z,79.66
2017-11-16T01:41:41.643Z,79.57
2017-11-16T01:41:42.251Z,79.57
2017-11-16T01:41:42.842Z,79.57
2017-11-16T01:41:43.446Z,79.75
2017-11-16T01:41:44.043Z,79.66
2017-11-16T01:41:44.645Z,79.47
2017-11-16T01:42:38.130Z,79.85
2017-11-16T01:42:38.697Z,79.75
2017-11-16T01:42:39.295Z,79.75
2017-11-16T01:42:39.897Z,79.85
2017-11-16T01:42:40.496Z,79.85
2017-11-16T01:42:41.094Z,79.94
2017-11-16T01:42:41.696Z,79.85
2017-11-16T01:42:42.301Z,79.94
2017-11-16T01:43:36.799Z,79.94
2017-11-16T01:43:37.375Z,79.75
2017-11-16T01:43:37.973Z,79.75
2017-11-16T01:43:38.572Z,79.75
2017-11-16T01:43:39.172Z,79.94
2017-11-16T01:43:39.771Z,79.75
2017-11-16T01:43:40.370Z,79.85
2017-11-16T01:43:40.971Z,79.75
2017-11-16T01:44:35.475Z,79.75
2017-11-16T01:44:36.054Z,79.66
2017-11-16T01:44:36.647Z,79.75
2017-11-16T01:44:37.248Z,79.57
2017-11-16T01:44:37.847Z,79.75
2017-11-16T01:44:38.446Z,79.66
2017-11-16T01:44:39.046Z,79.66
2017-11-16T01:44:39.647Z,79.66
2017-11-16T01:45:33.128Z,79.85
2017-11-16T01:45:33.700Z,79.75
2017-11-16T01:45:34.301Z,80.04
2017-11-16T01:45:34.900Z,79.75
2017-11-16T01:45:35.499Z,80.04
2017-11-16T01:45:36.101Z,79.66
2017-11-16T01:45:36.700Z,79.75
2017-11-16T01:45:37.299Z,79.57
2017-11-16T01:46:30.785Z,79.94
2017-11-16T01:46:31.353Z,79.66
2017-11-16T01:46:31.952Z,80.04
2017-11-16T01:46:32.551Z,80.04
2017-11-16T01:46:33.158Z,79.94
2017-11-16T01:46:33.751Z,79.94
2017-11-16T01:46:34.351Z,79.85
2017-11-16T01:46:34.952Z,79.85
2017-11-16T01:47:28.431Z,79.75
2017-11-16T01:47:29.004Z,79.75
2017-11-16T01:47:29.609Z,79.66
2017-11-16T01:47:30.203Z,79.66
2017-11-16T01:47:30.804Z,79.75
2017-11-16T01:47:31.404Z,79.66
2017-11-16T01:47:32.003Z,79.38
2017-11-16T01:47:32.603Z,79.85
2017-11-16T01:48:26.083Z,79.66
2017-11-16T01:48:26.655Z,79.57
2017-11-16T01:48:27.256Z,79.47
2017-11-16T01:48:27.855Z,79.66
2017-11-16T01:48:28.455Z,79.66
2017-11-16T01:48:29.054Z,79.66
2017-11-16T01:48:29.654Z,79.66
2017-11-16T01:48:30.254Z,79.66
2017-11-16T01:49:24.756Z,79.57
2017-11-16T01:49:25.334Z,79.47
2017-11-16T01:49:25.930Z,79.47
2017-11-16T01:49:26.529Z,79.47
2017-11-16T01:49:27.128Z,79.57
2017-11-16T01:49:27.730Z,79.47
2017-11-16T01:49:28.328Z,79.38
2017-11-16T01:49:28.929Z,79.47
2017-11-16T01:50:22.409Z,79.75
2017-11-16T01:50:22.986Z,79.57
2017-11-16T01:50:23.582Z,79.75
2017-11-16T01:50:24.183Z,79.75
2017-11-16T01:50:24.783Z,79.57
2017-11-16T01:50:25.382Z,79.66
2017-11-16T01:50:25.982Z,79.75
2017-11-16T01:50:26.582Z,79.75
2017-11-16T01:51:20.061Z,79.66
2017-11-16T01:51:20.644Z,79.41
2017-11-16T01:51:21.235Z,79.75
2017-11-16T01:51:21.833Z,79.57
2017-11-16T01:51:22.433Z,79.57
2017-11-16T01:51:23.040Z,79.47
2017-11-16T01:51:23.645Z,79.47
2017-11-16T01:51:24.233Z,79.32
2017-11-16T01:52:17.721Z,79.32
2017-11-16T01:52:18.292Z,79.51
2017-11-16T01:52:18.888Z,79.60
2017-11-16T01:52:19.486Z,79.51
2017-11-16T01:52:20.087Z,79.41
2017-11-16T01:52:20.687Z,79.41
2017-11-16T01:52:21.285Z,79.51
2017-11-16T01:52:21.885Z,79.32
2017-11-16T01:53:16.392Z,79.32
2017-11-16T01:53:16.967Z,79.51
2017-11-16T01:53:17.562Z,79.60
2017-11-16T01:53:18.164Z,79.32
2017-11-16T01:53:18.771Z,79.51
2017-11-16T01:53:19.360Z,79.51
2017-11-16T01:53:19.960Z,79.41
2017-11-16T01:53:20.566Z,79.22
2017-11-16T01:54:14.042Z,79.13
2017-11-16T01:54:14.616Z,79.22
2017-11-16T01:54:15.214Z,79.22
2017-11-16T01:54:15.815Z,79.22
2017-11-16T01:54:16.414Z,79.32
2017-11-16T01:54:17.045Z,79.22
2017-11-16T01:54:17.614Z,79.22
2017-11-16T01:54:18.214Z,79.32
2017-11-16T01:55:12.715Z,78.85
2017-11-16T01:55:13.295Z,78.85
2017-11-16T01:55:13.888Z,78.94
2017-11-16T01:55:14.489Z,78.85
2017-11-16T01:55:15.091Z,78.94
2017-11-16T01:55:15.690Z,79.03
2017-11-16T01:55:16.288Z,78.85
2017-11-16T01:55:16.888Z,79.03
2017-11-16T01:56:10.368Z,79.22
2017-11-16T01:56:10.947Z,79.13
2017-11-16T01:56:11.544Z,78.85
2017-11-16T01:56:12.143Z,78.85
2017-11-16T01:56:12.743Z,79.13
2017-11-16T01:56:13.347Z,79.32
2017-11-16T01:56:13.944Z,79.22
2017-11-16T01:56:14.542Z,79.13
2017-11-16T01:57:08.020Z,79.22
2017-11-16T01:57:08.594Z,79.22
2017-11-16T01:57:09.194Z,79.13
2017-11-16T01:57:09.793Z,79.13
2017-11-16T01:57:10.393Z,79.22
2017-11-16T01:57:10.993Z,79.13
2017-11-16T01:57:11.610Z,79.13
2017-11-16T01:57:12.193Z,79.13
2017-11-16T01:58:05.672Z,79.32
2017-11-16T01:58:06.247Z,79.32
2017-11-16T01:58:06.857Z,79.41
2017-11-16T01:58:07.444Z,79.41
2017-11-16T01:58:08.046Z,79.22
2017-11-16T01:58:08.645Z,79.22
2017-11-16T01:58:09.248Z,79.41
2017-11-16T01:58:09.845Z,79.03
2017-11-16T01:59:03.323Z,79.03
2017-11-16T01:59:03.898Z,79.13
2017-11-16T01:59:04.496Z,79.13
2017-11-16T01:59:05.095Z,79.13
2017-11-16T01:59:05.703Z,79.13
2017-11-16T01:59:06.297Z,79.03
2017-11-16T01:59:06.896Z,79.41
2017-11-16T01:59:07.495Z,79.13
2017-11-16T02:00:00.985Z,79.13
2017-11-16T02:00:01.596Z,79.03
2017-11-16T02:00:02.289Z,79.03
2017-11-16T02:00:02.793Z,79.22
2017-11-16T02:00:03.391Z,79.22
2017-11-16T02:00:03.991Z,79.22
2017-11-16T02:00:04.595Z,79.22
2017-11-16T02:00:05.195Z,79.22
2017-11-16T02:00:58.729Z,78.75
2017-11-16T02:00:59.302Z,78.85
2017-11-16T02:00:59.903Z,79.32
2017-11-16T02:01:00.502Z,78.75
2017-11-16T02:01:01.101Z,79.51
2017-11-16T02:01:01.700Z,79.51
2017-11-16T02:01:02.304Z,79.51
2017-11-16T02:01:02.901Z,78.75
2017-11-16T02:01:56.378Z,78.56
2017-11-16T02:01:56.956Z,78.85
2017-11-16T02:01:57.554Z,78.56
2017-11-16T02:01:58.153Z,78.56
2017-11-16T02:01:58.754Z,78.56
2017-11-16T02:01:59.353Z,78.46
2017-11-16T02:01:59.954Z,78.65
2017-11-16T02:02:00.552Z,78.46
2017-11-16T02:02:54.032Z,78.46
2017-11-16T02:02:54.606Z,78.46
2017-11-16T02:02:55.205Z,78.27
2017-11-16T02:02:55.806Z,78.46
2017-11-16T02:02:56.406Z,78.56
2017-11-16T02:02:57.006Z,78.46
2017-11-16T02:02:57.605Z,78.56
2017-11-16T02:02:58.204Z,78.46
2017-11-16T02:03:51.684Z,78.37
2017-11-16T02:03:52.257Z,78.37
2017-11-16T02:03:52.859Z,78.65
2017-11-16T02:03:53.458Z,78.75
2017-11-16T02:03:54.063Z,78.75
2017-11-16T02:03:54.658Z,78.46
2017-11-16T02:03:55.259Z,78.56
2017-11-16T02:03:55.859Z,78.65
2017-11-16T02:04:50.360Z,78.94
2017-11-16T02:04:50.934Z,78.56
2017-11-16T02:04:51.533Z,78.65
2017-11-16T02:04:52.133Z,78.85
2017-11-16T02:04:52.734Z,78.85
2017-11-16T02:04:53.332Z,78.85
2017-11-16T02:04:53.932Z,78.56
2017-11-16T02:04:54.531Z,78.65
2017-11-16T02:05:48.010Z,78.65
2017-11-16T02:05:48.590Z,78.46
2017-11-16T02:05:49.185Z,78.65
2017-11-16T02:05:49.785Z,78.46
2017-11-16T02:05:50.385Z,78.65
2017-11-16T02:05:50.984Z,78.65
2017-11-16T02:05:51.585Z,78.46
2017-11-16T02:05:52.186Z,78.56
2017-11-16T02:06:45.664Z,78.56
2017-11-16T02:06:46.237Z,78.56
2017-11-16T02:06:46.837Z,78.65
2017-11-16T02:06:47.438Z,78.85
2017-11-16T02:06:48.038Z,78.85
2017-11-16T02:06:48.636Z,78.94
2017-11-16T02:06:49.236Z,78.56
2017-11-16T02:06:49.836Z,78.85
2017-11-16T02:07:43.316Z,78.85
2017-11-16T02:07:43.888Z,78.85
2017-11-16T02:07:44.488Z,78.65
2017-11-16T02:07:45.089Z,78.85
2017-11-16T02:07:45.689Z,78.65
2017-11-16T02:07:46.288Z,78.85
2017-11-16T02:07:46.888Z,78.65
2017-11-16T02:07:47.491Z,78.65
2017-11-16T02:08:40.967Z,78.75
2017-11-16T02:08:41.538Z,78.85
2017-11-16T02:08:42.140Z,78.75
2017-11-16T02:08:42.738Z,78.75
2017-11-16T02:08:43.346Z,78.75
2017-11-16T02:08:43.939Z,78.75
2017-11-16T02:08:44.540Z,78.65
2017-11-16T02:08:45.139Z,78.75
2017-11-16T02:09:38.621Z,78.75
2017-11-16T02:09:39.192Z,78.65
2017-11-16T02:09:39.792Z,78.50
2017-11-16T02:09:40.392Z,78.41
2017-11-16T02:09:40.992Z,78.37
2017-11-16T02:09:41.591Z,78.75
2017-11-16T02:09:42.192Z,78.65
2017-11-16T02:09:42.791Z,78.50
2017-11-16T02:10:36.274Z,78.69
2017-11-16T02:10:36.845Z,78.88
2017-11-16T02:10:37.444Z,78.78
2017-11-16T02:10:38.044Z,78.69
2017-11-16T02:10:38.644Z,78.78
2017-11-16T02:10:39.243Z,78.69
2017-11-16T02:10:39.842Z,78.78
2017-11-16T02:10:40.442Z,78.78
2017-11-16T02:11:34.952Z,78.88
2017-11-16T02:11:35.519Z,78.88
2017-11-16T02:11:36.123Z,78.88
2017-11-16T02:11:36.717Z,78.59
2017-11-16T02:11:37.320Z,78.50
2017-11-16T02:11:37.918Z,78.98
2017-11-16T02:11:38.518Z,78.69
2017-11-16T02:11:39.118Z,78.88
2017-11-16T02:12:32.598Z,78.50
2017-11-16T02:12:33.172Z,78.69
2017-11-16T02:12:33.769Z,78.69
2017-11-16T02:12:34.370Z,78.50
2017-11-16T02:12:34.975Z,78.50
2017-11-16T02:12:35.570Z,78.50
2017-11-16T02:12:36.171Z,78.50
2017-11-16T02:12:36.774Z,78.69
2017-11-16T02:13:30.248Z,78.69
2017-11-16T02:13:30.823Z,78.31
2017-11-16T02:13:31.424Z,78.50
2017-11-16T02:13:32.022Z,78.41
2017-11-16T02:13:32.622Z,78.59
2017-11-16T02:13:33.221Z,78.69
2017-11-16T02:13:33.821Z,78.59
2017-11-16T02:13:34.421Z,78.69
2017-11-16T02:14:28.923Z,79.07
2017-11-16T02:14:29.498Z,79.46
2017-11-16T02:14:30.098Z,79.36
2017-11-16T02:14:30.697Z,79.27
2017-11-16T02:14:31.298Z,78.98
2017-11-16T02:14:31.902Z,79.07
2017-11-16T02:14:32.503Z,79.36
2017-11-16T02:14:33.098Z,79.07
2017-11-16T02:15:27.598Z,79.36
2017-11-16T02:15:28.174Z,79.46
2017-11-16T02:15:28.772Z,78.88
2017-11-16T02:15:29.373Z,79.55
2017-11-16T02:15:29.983Z,79.46
2017-11-16T02:15:30.573Z,79.55
2017-11-16T02:15:31.186Z,79.27
2017-11-16T02:15:31.773Z,79.17
2017-11-16T02:16:26.275Z,79.64
2017-11-16T02:16:26.853Z,79.64
2017-11-16T02:16:27.451Z,79.64
2017-11-16T02:16:28.049Z,79.74
2017-11-16T02:16:28.646Z,79.64
2017-11-16T02:16:29.248Z,79.64
2017-11-16T02:16:29.852Z,79.55
2017-11-16T02:16:30.447Z,79.64
2017-11-16T02:17:23.927Z,80.12
2017-11-16T02:17:24.517Z,80.12
2017-11-16T02:17:25.099Z,80.12
2017-11-16T02:17:25.700Z,80.22
2017-11-16T02:17:26.301Z,80.12
2017-11-16T02:17:26.908Z,80.12
2017-11-16T02:17:27.500Z,80.22
2017-11-16T02:17:28.099Z,80.12
2017-11-16T02:18:21.579Z,80.22
2017-11-16T02:18:22.152Z,80.02
2017-11-16T02:18:22.754Z,80.22
2017-11-16T02:18:23.353Z,80.02
2017-11-16T02:18:23.952Z,79.93
2017-11-16T02:18:24.552Z,80.02
2017-11-16T02:18:25.150Z,80.02
2017-11-16T02:18:25.752Z,80.22
2017-11-16T02:19:20.262Z,80.22
2017-11-16T02:19:20.829Z,80.02
2017-11-16T02:19:21.429Z,80.12
2017-11-16T02:19:22.027Z,80.12
2017-11-16T02:19:22.627Z,80.12
2017-11-16T02:19:23.235Z,79.93
2017-11-16T02:19:23.837Z,79.93
2017-11-16T02:19:24.427Z,80.02
2017-11-16T02:20:17.912Z,80.12
2017-11-16T02:20:18.481Z,80.60
2017-11-16T02:20:19.080Z,79.93
2017-11-16T02:20:19.685Z,80.02
2017-11-16T02:20:20.281Z,80.31
2017-11-16T02:20:20.880Z,80.31
2017-11-16T02:20:21.479Z,80.02
2017-11-16T02:20:22.079Z,79.93
2017-11-16T02:21:15.558Z,80.02
2017-11-16T02:21:16.134Z,80.12
2017-11-16T02:21:16.732Z,79.93
2017-11-16T02:21:17.332Z,80.60
2017-11-16T02:21:17.935Z,80.31
2017-11-16T02:21:18.531Z,80.22
2017-11-16T02:21:19.137Z,80.02
2017-11-16T02:21:19.741Z,80.02
2017-11-16T02:22:13.210Z,80.41
2017-11-16T02:22:13.784Z,80.50
2017-11-16T02:22:14.384Z,80.41
2017-11-16T02:22:14.984Z,80.60
2017-11-16T02:22:15.583Z,80.50
2017-11-16T02:22:16.182Z,80.60
2017-11-16T02:22:16.788Z,80.79
2017-11-16T02:22:17.382Z,80.50
2017-11-16T02:23:10.862Z,80.69
2017-11-16T02:23:11.442Z,80.69
2017-11-16T02:23:12.035Z,80.69
2017-11-16T02:23:12.635Z,80.69
2017-11-16T02:23:13.233Z,80.69
2017-11-16T02:23:13.834Z,80.79
2017-11-16T02:23:14.434Z,80.69
2017-11-16T02:23:15.034Z,80.69
2017-11-16T02:24:08.513Z,81.07
2017-11-16T02:24:09.087Z,81.17
2017-11-16T02:24:09.687Z,80.69
2017-11-16T02:24:10.289Z,80.69
2017-11-16T02:24:10.887Z,80.60
2017-11-16T02:24:11.487Z,81.07
2017-11-16T02:24:12.086Z,80.60
2017-11-16T02:24:12.686Z,81.26
2017-11-16T02:25:06.165Z,80.98
2017-11-16T02:25:06.739Z,81.07
2017-11-16T02:25:07.340Z,80.98
2017-11-16T02:25:07.938Z,80.88
2017-11-16T02:25:08.538Z,80.88
2017-11-16T02:25:09.146Z,80.88
2017-11-16T02:25:09.737Z,80.88
2017-11-16T02:25:10.340Z,80.98
2017-11-16T02:26:04.840Z,80.88
2017-11-16T02:26:05.413Z,80.88
2017-11-16T02:26:06.012Z,81.07
2017-11-16T02:26:06.613Z,80.88
2017-11-16T02:26:07.214Z,81.07
2017-11-16T02:26:07.814Z,80.88
2017-11-16T02:26:08.413Z,80.98
2017-11-16T02:26:09.012Z,81.07
2017-11-16T02:27:03.003Z,81.07
2017-11-16T02:27:03.578Z,80.79
2017-11-16T02:27:04.177Z,80.79
2017-11-16T02:27:04.776Z,81.07
2017-11-16T02:27:05.378Z,80.79
2017-11-16T02:27:05.978Z,81.07
2017-11-16T02:27:06.576Z,81.26
2017-11-16T02:28:02.603Z,80.98
2017-11-16T02:28:03.174Z,80.98
2017-11-16T02:28:03.773Z,80.98
2017-11-16T02:28:04.374Z,81.74
2017-11-16T02:28:04.980Z,80.88
2017-11-16T02:28:05.574Z,80.88
2017-11-16T02:29:00.047Z,81.55
2017-11-16T02:29:00.622Z,81.65
2017-11-16T02:29:01.220Z,81.36
2017-11-16T02:29:01.820Z,81.55
2017-11-16T02:29:02.420Z,81.36
2017-11-16T02:29:03.020Z,81.55
2017-11-16T02:29:03.620Z,81.36
2017-11-16T02:29:57.597Z,81.84
2017-11-16T02:29:58.170Z,81.55
2017-11-16T02:29:58.770Z,81.65
2017-11-16T02:29:59.378Z,81.65
2017-11-16T02:29:59.970Z,81.55
2017-11-16T02:30:00.569Z,81.55
2017-11-16T02:30:01.171Z,81.46
2017-11-16T02:30:54.740Z,81.26
2017-11-16T02:30:55.312Z,81.55
2017-11-16T02:30:55.911Z,81.65
2017-11-16T02:30:56.511Z,81.65
2017-11-16T02:30:57.110Z,81.55
2017-11-16T02:30:57.709Z,81.36
2017-11-16T02:30:58.313Z,81.46
2017-11-16T02:30:58.911Z,81.65
2017-11-16T02:31:52.903Z,82.31
2017-11-16T02:31:53.477Z,82.12
2017-11-16T02:31:54.078Z,82.50
2017-11-16T02:31:54.675Z,81.74
2017-11-16T02:31:55.275Z,81.84
2017-11-16T02:31:55.877Z,82.21
2017-11-16T02:31:56.473Z,81.74
2017-11-16T02:32:55.977Z,82.50
2017-11-16T02:32:56.552Z,82.60
2017-11-16T02:32:57.151Z,82.60
2017-11-16T02:32:57.755Z,82.69
2017-11-16T02:32:58.354Z,82.50
2017-11-16T02:32:58.952Z,82.50
2017-11-16T02:32:59.552Z,82.41
2017-11-16T02:33:00.153Z,82.60
2017-11-16T02:33:00.752Z,82.69
2017-11-16T02:33:01.352Z,82.60
2017-11-16T02:33:01.966Z,82.50
2017-11-16T02:33:02.555Z,82.79
2017-11-16T02:33:03.150Z,82.60
2017-11-16T02:33:03.750Z,82.69
2017-11-16T02:33:04.353Z,82.89
2017-11-16T02:33:04.951Z,82.60
2017-11-16T02:52:40.861Z,81.41
2017-11-16T02:52:41.428Z,81.60
2017-11-16T02:52:42.028Z,81.70
2017-11-16T02:52:42.634Z,81.89
2017-11-16T02:52:43.227Z,81.32
2017-11-16T02:52:43.827Z,81.32
2017-11-16T02:52:44.432Z,81.60
2017-11-16T02:52:45.030Z,81.32
2017-11-16T02:53:38.510Z,81.23
2017-11-16T02:53:39.089Z,81.32
2017-11-16T02:53:39.688Z,81.41
2017-11-16T02:53:41.062Z,81.51
2017-11-16T02:53:41.560Z,81.60
2017-11-16T02:53:42.169Z,81.51
2017-11-16T02:53:42.760Z,81.51
2017-11-16T02:54:37.285Z,81.41
2017-11-16T02:54:37.860Z,81.32
2017-11-16T02:54:38.459Z,81.13
2017-11-16T02:54:39.065Z,81.32
2017-11-16T02:54:39.657Z,81.32
2017-11-16T02:54:40.263Z,81.32
2017-11-16T02:54:40.857Z,81.32
2017-11-16T02:54:41.456Z,81.23
2017-11-16T02:55:34.935Z,81.60
2017-11-16T02:55:35.511Z,81.32
2017-11-16T02:55:36.111Z,81.70
2017-11-16T02:55:36.728Z,81.70
2017-11-16T02:55:37.310Z,81.51
2017-11-16T02:55:37.910Z,81.51
2017-11-16T02:55:38.510Z,81.60
2017-11-16T02:55:39.110Z,81.51
2017-11-16T02:56:33.614Z,80.65
2017-11-16T02:56:34.189Z,80.75
2017-11-16T02:56:34.787Z,80.65
2017-11-16T02:56:35.388Z,80.65
2017-11-16T02:56:35.986Z,81.03
2017-11-16T02:56:36.604Z,81.03
2017-11-16T02:56:37.187Z,81.03
2017-11-16T02:56:37.800Z,80.94
2017-11-16T02:57:31.267Z,81.03
2017-11-16T02:57:31.848Z,81.23
2017-11-16T02:57:32.438Z,81.23
2017-11-16T02:57:33.039Z,81.23
2017-11-16T02:57:33.638Z,81.03
2017-11-16T02:57:34.237Z,81.03
2017-11-16T02:57:34.837Z,81.03
2017-11-16T02:57:35.439Z,81.03
2017-11-16T02:58:28.917Z,80.84
2017-11-16T02:58:29.490Z,80.65
2017-11-16T02:58:30.090Z,80.94
2017-11-16T02:58:30.692Z,80.94
2017-11-16T02:58:31.290Z,80.84
2017-11-16T02:58:31.890Z,80.75
2017-11-16T02:58:32.489Z,80.75
2017-11-16T02:58:33.089Z,80.84
2017-11-16T02:59:26.569Z,81.13
2017-11-16T02:59:27.143Z,81.03
2017-11-16T02:59:27.743Z,81.03
2017-11-16T02:59:28.344Z,81.13
2017-11-16T02:59:28.942Z,81.03
2017-11-16T02:59:29.543Z,80.94
2017-11-16T02:59:30.143Z,80.98
2017-11-16T02:59:30.743Z,81.03
2017-11-16T03:00:24.221Z,81.32
2017-11-16T03:00:24.795Z,80.60
2017-11-16T03:00:25.396Z,81.23
2017-11-16T03:00:25.997Z,81.13
2017-11-16T03:00:26.595Z,81.23
2017-11-16T03:00:27.195Z,80.55
2017-11-16T03:00:27.792Z,81.23
2017-11-16T03:00:28.393Z,80.94
2017-11-16T03:01:21.872Z,80.55
2017-11-16T03:01:22.446Z,80.65
2017-11-16T03:01:23.046Z,80.84
2017-11-16T03:01:23.647Z,80.75
2017-11-16T03:01:24.246Z,80.84
2017-11-16T03:01:24.845Z,80.75
2017-11-16T03:01:25.448Z,80.46
2017-11-16T03:01:26.046Z,80.84
2017-11-16T03:02:21.061Z,81.23
2017-11-16T03:02:21.634Z,80.46
2017-11-16T03:02:22.233Z,80.46
2017-11-16T03:02:22.832Z,81.13
2017-11-16T03:02:23.432Z,80.65
2017-11-16T03:02:24.033Z,80.36
2017-11-16T03:02:24.633Z,80.50
2017-11-16T03:03:19.134Z,80.55
2017-11-16T03:03:19.714Z,80.46
2017-11-16T03:03:20.294Z,80.55
2017-11-16T03:03:20.896Z,80.55
2017-11-16T03:03:21.495Z,80.46
2017-11-16T03:03:22.093Z,80.46
2017-11-16T03:03:22.694Z,80.55
2017-11-16T03:03:23.294Z,80.55
2017-11-16T03:04:16.778Z,80.55
2017-11-16T03:04:17.348Z,80.55
2017-11-16T03:04:17.948Z,80.55
2017-11-16T03:04:18.547Z,80.46
2017-11-16T03:04:19.146Z,80.36
2017-11-16T03:04:19.747Z,80.41
2017-11-16T03:04:20.350Z,80.46
2017-11-16T03:04:20.947Z,80.36
2017-11-16T03:05:15.961Z,80.65
2017-11-16T03:05:16.536Z,80.65
2017-11-16T03:05:17.133Z,80.46
2017-11-16T03:05:17.734Z,80.27
2017-11-16T03:05:18.336Z,80.55
2017-11-16T03:05:18.936Z,80.55
2017-11-16T03:06:13.000Z,80.46
2017-11-16T03:06:13.573Z,80.46
2017-11-16T03:06:14.173Z,80.46
2017-11-16T03:06:14.774Z,80.46
2017-11-16T03:06:15.373Z,80.36
2017-11-16T03:06:15.972Z,80.46
2017-11-16T03:06:16.571Z,80.46
2017-11-16T03:06:17.173Z,80.46
2017-11-16T03:07:10.651Z,80.36
2017-11-16T03:07:11.223Z,80.36
2017-11-16T03:07:11.826Z,80.65
2017-11-16T03:07:12.424Z,80.36
2017-11-16T03:07:13.023Z,80.65
2017-11-16T03:07:13.624Z,80.36
2017-11-16T03:07:14.226Z,80.65
2017-11-16T03:07:14.823Z,80.65
2017-11-16T03:08:08.303Z,80.22
2017-11-16T03:08:08.877Z,80.02
2017-11-16T03:08:09.476Z,80.60
2017-11-16T03:08:10.076Z,80.55
2017-11-16T03:08:10.676Z,80.18
2017-11-16T03:08:11.283Z,80.08
2017-11-16T03:08:11.876Z,80.60
2017-11-16T03:08:12.488Z,80.12
2017-11-16T03:09:05.960Z,80.02
2017-11-16T03:09:06.528Z,80.50
2017-11-16T03:09:07.129Z,80.12
2017-11-16T03:09:07.728Z,79.93
2017-11-16T03:09:08.326Z,80.12
2017-11-16T03:09:08.928Z,80.12
2017-11-16T03:09:09.526Z,80.22
2017-11-16T03:09:10.126Z,80.31
2017-11-16T03:10:04.630Z,79.93
2017-11-16T03:10:05.201Z,80.02
2017-11-16T03:10:05.804Z,80.22
2017-11-16T03:10:06.402Z,80.31
2017-11-16T03:10:07.009Z,79.93
2017-11-16T03:10:07.604Z,79.93
2017-11-16T03:10:08.201Z,80.12
2017-11-16T03:10:08.804Z,80.12
2017-11-16T03:11:02.282Z,80.50
2017-11-16T03:11:02.856Z,80.60
2017-11-16T03:11:03.455Z,80.50
2017-11-16T03:11:04.054Z,80.50
2017-11-16T03:11:04.654Z,80.50
2017-11-16T03:11:05.254Z,80.69
2017-11-16T03:11:05.855Z,80.50
2017-11-16T03:11:06.454Z,80.50
2017-11-16T03:12:00.956Z,80.41
2017-11-16T03:12:01.530Z,80.79
2017-11-16T03:12:02.130Z,80.50
2017-11-16T03:12:02.730Z,80.69
2017-11-16T03:12:03.331Z,80.50
2017-11-16T03:12:03.929Z,80.79
2017-11-16T03:12:04.528Z,80.41
2017-11-16T03:12:05.128Z,80.69
2017-11-16T03:12:59.633Z,80.60
2017-11-16T03:13:00.206Z,80.50
2017-11-16T03:13:00.807Z,80.60
2017-11-16T03:13:01.406Z,80.60
2017-11-16T03:13:02.009Z,80.69
2017-11-16T03:13:02.609Z,80.69
2017-11-16T03:13:03.206Z,80.69
2017-11-16T03:13:03.806Z,80.60
2017-11-16T03:13:58.310Z,80.79
2017-11-16T03:13:58.884Z,80.50
2017-11-16T03:13:59.486Z,80.50
2017-11-16T03:14:00.079Z,80.88
2017-11-16T03:14:00.700Z,80.69
2017-11-16T03:14:01.280Z,80.98
2017-11-16T03:14:01.878Z,80.69
2017-11-16T03:14:02.478Z,80.79
2017-11-16T03:14:56.984Z,80.88
2017-11-16T03:14:57.557Z,80.79
2017-11-16T03:14:58.157Z,81.07
2017-11-16T03:14:58.757Z,80.79
2017-11-16T03:14:59.356Z,80.79
2017-11-16T03:14:59.956Z,81.07
2017-11-16T03:15:00.556Z,80.79
2017-11-16T03:15:01.156Z,80.88
2017-11-16T03:15:54.635Z,80.79
2017-11-16T03:15:55.209Z,80.69
2017-11-16T03:15:55.809Z,80.79
2017-11-16T03:15:56.409Z,81.46
2017-11-16T03:15:57.009Z,80.79
2017-11-16T03:15:57.609Z,81.26
2017-11-16T03:15:58.208Z,80.79
2017-11-16T03:15:58.809Z,80.88
2017-11-16T03:16:53.310Z,80.88
2017-11-16T03:16:53.884Z,80.88
2017-11-16T03:16:54.483Z,80.88
2017-11-16T03:16:55.087Z,81.07
2017-11-16T03:16:55.685Z,81.07
2017-11-16T03:16:56.284Z,80.88
2017-11-16T03:16:56.884Z,80.98
2017-11-16T03:16:57.483Z,80.98
2017-11-16T03:17:50.965Z,80.98
2017-11-16T03:17:51.537Z,80.88
2017-11-16T03:17:52.138Z,80.88
2017-11-16T03:17:52.739Z,80.88
2017-11-16T03:17:53.357Z,81.07
2017-11-16T03:17:53.936Z,80.88
2017-11-16T03:17:54.536Z,80.98
2017-11-16T03:17:55.136Z,81.07
2017-11-16T03:18:49.638Z,81.55
2017-11-16T03:18:50.212Z,81.46
2017-11-16T03:18:50.811Z,81.55
2017-11-16T03:18:51.420Z,81.55
2017-11-16T03:18:52.009Z,81.55
2017-11-16T03:18:52.610Z,81.46
2017-11-16T03:18:53.209Z,81.36
2017-11-16T03:18:53.811Z,81.55
2017-11-16T03:19:47.290Z,81.55
2017-11-16T03:19:47.864Z,81.46
2017-11-16T03:19:48.465Z,81.55
2017-11-16T03:19:49.066Z,81.36
2017-11-16T03:19:49.665Z,81.55
2017-11-16T03:19:50.279Z,81.36
2017-11-16T03:19:50.862Z,81.36
2017-11-16T03:19:51.466Z,81.46
2017-11-16T03:20:44.943Z,81.65
2017-11-16T03:20:45.517Z,81.55
2017-11-16T03:20:46.117Z,81.55
2017-11-16T03:20:46.716Z,81.26
2017-11-16T03:20:47.318Z,81.65
2017-11-16T03:20:47.916Z,81.26
2017-11-16T03:20:48.516Z,81.46
2017-11-16T03:20:49.115Z,81.65
2017-11-16T03:21:42.594Z,81.65
2017-11-16T03:21:43.179Z,81.36
2017-11-16T03:21:43.768Z,82.03
2017-11-16T03:21:44.369Z,81.36
2017-11-16T03:21:44.968Z,81.36
2017-11-16T03:21:45.567Z,81.36
2017-11-16T03:21:46.167Z,81.74
2017-11-16T03:21:46.769Z,81.55
2017-11-16T03:22:40.245Z,81.55
2017-11-16T03:22:40.820Z,81.55
2017-11-16T03:22:41.419Z,81.36
2017-11-16T03:22:42.019Z,81.36
2017-11-16T03:22:42.619Z,81.65
2017-11-16T03:22:43.217Z,81.36
2017-11-16T03:22:43.819Z,81.55
2017-11-16T03:22:44.420Z,81.65
2017-11-16T03:23:37.896Z,81.46
2017-11-16T03:23:38.471Z,81.36
2017-11-16T03:23:39.071Z,81.55
2017-11-16T03:23:39.672Z,81.55
2017-11-16T03:23:40.271Z,81.55
2017-11-16T03:23:40.869Z,81.55
2017-11-16T03:23:41.470Z,81.36
2017-11-16T03:23:42.069Z,81.36
2017-11-16T03:24:36.573Z,82.03
2017-11-16T03:24:37.156Z,82.03
2017-11-16T03:24:37.746Z,82.12
2017-11-16T03:24:38.355Z,82.03
2017-11-16T03:24:38.947Z,82.03
2017-11-16T03:24:39.546Z,82.03
2017-11-16T03:24:40.146Z,81.84
2017-11-16T03:24:40.744Z,81.93
2017-11-16T03:25:34.225Z,82.03
2017-11-16T03:25:34.798Z,82.17
2017-11-16T03:25:35.398Z,82.31
2017-11-16T03:25:35.998Z,82.31
2017-11-16T03:25:36.599Z,82.12
2017-11-16T03:25:37.198Z,82.12
2017-11-16T03:25:37.796Z,82.31
2017-11-16T03:25:38.397Z,82.12
2017-11-16T03:26:31.876Z,82.60
2017-11-16T03:26:32.454Z,82.60
2017-11-16T03:26:33.064Z,82.60
2017-11-16T03:26:33.651Z,82.60
2017-11-16T03:26:34.249Z,82.31
2017-11-16T03:26:34.849Z,82.79
2017-11-16T03:26:35.449Z,82.60
2017-11-16T03:26:36.048Z,82.50
2017-11-16T03:27:30.552Z,82.41
2017-11-16T03:27:31.124Z,82.41
2017-11-16T03:27:31.724Z,82.50
2017-11-16T03:27:32.325Z,82.64
2017-11-16T03:27:32.926Z,82.54
2017-11-16T03:27:33.524Z,82.41
2017-11-16T03:27:34.125Z,82.50
2017-11-16T03:27:34.723Z,82.50
2017-11-16T03:28:28.201Z,82.89
2017-11-16T03:28:28.781Z,82.89
2017-11-16T03:28:29.380Z,82.69
2017-11-16T03:28:29.978Z,82.89
2017-11-16T03:28:30.577Z,82.98
2017-11-16T03:28:31.180Z,82.98
2017-11-16T03:28:31.777Z,82.92
2017-11-16T03:28:32.376Z,82.89
2017-11-16T03:29:25.857Z,83.12
2017-11-16T03:29:26.429Z,82.92
2017-11-16T03:29:27.028Z,83.12
2017-11-16T03:29:27.629Z,82.98
2017-11-16T03:29:28.235Z,83.36
2017-11-16T03:29:28.829Z,83.21
2017-11-16T03:29:29.428Z,83.07
2017-11-16T03:29:30.029Z,82.92
2017-11-16T03:30:23.509Z,82.89
2017-11-16T03:30:24.100Z,82.92
2017-11-16T03:30:24.688Z,83.12
2017-11-16T03:30:25.282Z,82.89
2017-11-16T03:30:25.881Z,83.07
2017-11-16T03:30:26.485Z,83.36
2017-11-16T03:30:27.081Z,83.26
2017-11-16T03:30:27.688Z,83.17
2017-11-16T03:31:22.182Z,82.92